createdAt,value
2019-03-25T00:02:06.563Z,45.59
2019-03-25T00:04:38.287Z,45.65
2019-03-25T00:07:09.971Z,45.68
2019-03-25T00:09:42.690Z,45.75
2019-03-25T00:12:14.504Z,45.75
2019-03-25T00:14:46.235Z,45.86
2019-03-25T00:17:18.082Z,45.93
2019-03-25T00:19:49.778Z,46.09
2019-03-25T00:22:21.552Z,46.15
2019-03-25T00:24:53.263Z,46.25
2019-03-25T00:27:24.953Z,46.32
2019-03-25T00:29:56.691Z,46.35
2019-03-25T00:32:28.371Z,46.45
2019-03-25T00:35:00.166Z,46.50
2019-03-25T00:37:32.043Z,46.67
2019-03-25T00:40:03.827Z,46.74
2019-03-25T00:42:35.891Z,46.88
2019-03-25T00:45:07.647Z,46.94
2019-03-25T00:47:39.398Z,47.04
2019-03-25T00:50:11.288Z,47.18
2019-03-25T00:52:43.001Z,47.21
2019-03-25T00:55:14.763Z,47.30
2019-03-25T00:57:46.542Z,47.44
2019-03-25T01:00:18.510Z,47.50
2019-03-25T01:02:50.261Z,47.61
2019-03-25T01:05:22.044Z,47.90
2019-03-25T01:07:53.818Z,48.04
2019-03-25T01:10:25.538Z,48.21
2019-03-25T01:12:57.306Z,48.11
2019-03-25T01:15:29.126Z,48.27
2019-03-25T01:18:00.828Z,48.24
2019-03-25T01:20:32.630Z,48.41
2019-03-25T01:23:04.331Z,48.39
2019-03-25T01:25:36.128Z,48.53
2019-03-25T01:28:07.889Z,48.67
2019-03-25T01:30:39.680Z,48.67
2019-03-25T01:33:11.412Z,48.73
2019-03-25T01:35:43.227Z,48.82
2019-03-25T01:38:15.030Z,48.87
2019-03-25T01:40:46.929Z,49.13
2019-03-25T01:43:18.735Z,49.05
2019-03-25T01:45:50.409Z,49.03
2019-03-25T01:48:23.263Z,49.12
2019-03-25T01:50:55.042Z,49.33
2019-03-25T01:53:26.821Z,49.28
2019-03-25T01:55:58.474Z,49.32
2019-03-25T01:58:30.235Z,49.24
2019-03-25T02:01:01.960Z,49.11
2019-03-25T02:03:33.670Z,49.12
2019-03-25T02:06:05.416Z,49.31
2019-03-25T02:08:37.123Z,49.27
2019-03-25T02:11:08.983Z,49.48
2019-03-25T02:13:40.840Z,49.40
2019-03-25T02:16:12.529Z,49.63
2019-03-25T02:18:44.270Z,49.83
2019-03-25T02:21:15.981Z,49.64
2019-03-25T02:23:47.776Z,49.93
2019-03-25T02:26:19.452Z,49.97
2019-03-25T02:28:51.182Z,50.55
2019-03-25T02:31:22.873Z,50.54
2019-03-25T02:33:54.610Z,50.28
2019-03-25T02:36:26.414Z,50.73
2019-03-25T02:38:58.103Z,50.79
2019-03-25T02:41:29.767Z,51.06
2019-03-25T02:44:01.416Z,50.87
2019-03-25T02:46:33.120Z,50.87
2019-03-25T02:49:04.869Z,50.96
2019-03-25T02:51:36.625Z,51.44
2019-03-25T02:54:08.329Z,51.53
2019-03-25T02:56:40.049Z,51.52
2019-03-25T02:59:11.801Z,51.51
2019-03-25T03:01:43.584Z,51.75
2019-03-25T03:04:15.451Z,51.62
2019-03-25T03:06:47.175Z,51.84
2019-03-25T03:09:18.877Z,51.69
2019-03-25T03:11:50.561Z,51.73
2019-03-25T03:14:22.301Z,51.38
2019-03-25T03:16:54.017Z,51.37
2019-03-25T03:19:25.817Z,51.42
2019-03-25T03:21:57.518Z,51.17
2019-03-25T03:24:29.160Z,51.14
2019-03-25T03:27:00.877Z,51.13
2019-03-25T03:29:32.543Z,51.06
2019-03-25T03:32:04.242Z,50.94
2019-03-25T03:34:35.971Z,50.78
2019-03-25T03:37:07.661Z,50.70
2019-03-25T03:39:39.437Z,50.55
2019-03-25T03:42:11.163Z,50.43
2019-03-25T03:44:42.913Z,50.47
2019-03-25T03:47:14.593Z,50.29
2019-03-25T03:49:46.403Z,50.35
2019-03-25T03:52:18.142Z,50.21
2019-03-25T03:54:49.897Z,50.12
2019-03-25T03:57:22.286Z,50.06
2019-03-25T03:59:54.042Z,50.09
2019-03-25T04:02:25.742Z,50.03
2019-03-25T04:04:57.424Z,50.03
2019-03-25T04:07:29.167Z,49.93
2019-03-25T04:10:00.805Z,49.94
2019-03-25T04:12:32.547Z,49.96
2019-03-25T04:15:04.353Z,50.08
2019-03-25T04:17:36.105Z,50.04
2019-03-25T04:20:07.907Z,50.21
2019-03-25T04:22:39.606Z,50.36
2019-03-25T04:25:11.312Z,50.44
2019-03-25T04:27:43.072Z,50.62
2019-03-25T04:30:15.026Z,50.94
2019-03-25T04:32:46.820Z,51.20
2019-03-25T04:35:18.516Z,51.46
2019-03-25T04:37:50.503Z,51.74
2019-03-25T04:40:22.521Z,52.02
2019-03-25T04:42:54.238Z,52.80
2019-03-25T04:45:26.005Z,53.63
2019-03-25T04:47:57.768Z,54.29
2019-03-25T04:50:29.529Z,54.97
2019-03-25T04:53:01.222Z,55.10
2019-03-25T04:55:32.940Z,56.74
2019-03-25T04:58:04.667Z,55.96
2019-03-25T05:00:37.713Z,55.75
2019-03-25T05:03:09.478Z,55.63
2019-03-25T05:05:41.172Z,55.47
2019-03-25T05:08:12.884Z,55.23
2019-03-25T05:10:44.604Z,55.05
2019-03-25T05:13:16.344Z,55.13
2019-03-25T05:15:48.279Z,56.85
2019-03-25T05:18:19.994Z,57.77
2019-03-25T05:20:51.735Z,57.95
2019-03-25T05:23:23.477Z,58.79
2019-03-25T05:25:55.291Z,59.63
2019-03-25T05:28:26.999Z,59.09
2019-03-25T05:30:58.869Z,58.80
2019-03-25T05:33:30.660Z,58.14
2019-03-25T05:36:02.372Z,57.86
2019-03-25T05:38:34.114Z,57.79
2019-03-25T05:41:06.234Z,57.74
2019-03-25T05:43:37.980Z,57.45
2019-03-25T05:46:09.887Z,56.75
2019-03-25T05:48:41.595Z,57.70
2019-03-25T05:51:13.739Z,58.32
2019-03-25T05:53:46.464Z,57.83
2019-03-25T05:56:18.250Z,56.47
2019-03-25T05:58:49.966Z,57.11
2019-03-25T06:01:22.023Z,57.33
2019-03-25T06:03:53.749Z,57.53
2019-03-25T06:06:25.549Z,56.71
2019-03-25T06:08:57.290Z,57.50
2019-03-25T06:11:29.083Z,57.79
2019-03-25T06:14:00.868Z,57.30
2019-03-25T06:16:32.640Z,56.96
2019-03-25T06:19:04.441Z,56.83
2019-03-25T06:21:36.206Z,57.08
2019-03-25T06:24:08.767Z,56.33
2019-03-25T06:26:40.558Z,56.74
2019-03-25T06:29:12.284Z,56.38
2019-03-25T06:31:43.995Z,57.10
2019-03-25T06:34:15.745Z,56.68
2019-03-25T06:36:47.413Z,57.29
2019-03-25T06:39:19.149Z,56.96
2019-03-25T06:41:50.860Z,57.33
2019-03-25T06:44:22.680Z,57.01
2019-03-25T06:46:54.456Z,56.85
2019-03-25T06:49:26.181Z,57.36
2019-03-25T06:51:57.970Z,56.68
2019-03-25T06:54:29.725Z,57.69
2019-03-25T06:57:01.493Z,58.05
2019-03-25T06:59:33.276Z,57.65
2019-03-25T07:02:04.987Z,57.11
2019-03-25T07:04:36.690Z,56.90
2019-03-25T07:07:08.470Z,57.03
2019-03-25T07:09:40.238Z,56.69
2019-03-25T07:12:12.211Z,56.96
2019-03-25T07:14:43.913Z,56.71
2019-03-25T07:17:15.717Z,56.88
2019-03-25T07:19:47.415Z,56.71
2019-03-25T07:22:19.582Z,56.67
2019-03-25T07:24:51.324Z,56.26
2019-03-25T07:27:23.099Z,56.32
2019-03-25T07:29:54.811Z,56.27
2019-03-25T07:32:26.719Z,56.31
2019-03-25T07:34:58.546Z,56.24
2019-03-25T07:37:30.309Z,56.02
2019-03-25T07:40:01.994Z,56.34
2019-03-25T07:42:33.691Z,56.08
2019-03-25T07:45:05.622Z,56.05
2019-03-25T07:47:37.344Z,56.01
2019-03-25T07:50:09.392Z,55.83
2019-03-25T07:52:41.090Z,55.77
2019-03-25T07:55:13.025Z,55.82
2019-03-25T07:57:48.600Z,55.57
2019-03-25T08:00:19.220Z,55.73
2019-03-25T08:02:50.949Z,55.64
2019-03-25T08:05:22.684Z,55.46
2019-03-25T08:07:54.882Z,55.47
2019-03-25T08:10:36.913Z,55.35
2019-03-25T08:13:08.982Z,55.19
2019-03-25T08:15:40.853Z,55.11
2019-03-25T08:18:12.678Z,55.09
2019-03-25T08:20:44.519Z,54.96
2019-03-25T08:23:16.260Z,54.90
2019-03-25T08:25:48.006Z,54.92
2019-03-25T08:28:19.699Z,54.90
2019-03-25T08:30:51.579Z,54.81
2019-03-25T08:33:23.329Z,54.89
2019-03-25T08:35:55.133Z,54.83
2019-03-25T08:38:26.900Z,54.68
2019-03-25T08:40:59.765Z,54.67
2019-03-25T08:43:31.561Z,54.87
2019-03-25T08:46:03.312Z,54.78
2019-03-25T08:48:34.971Z,54.73
2019-03-25T08:51:06.681Z,54.64
2019-03-25T08:53:38.545Z,54.45
2019-03-25T08:56:10.322Z,54.43
2019-03-25T08:58:42.267Z,54.21
2019-03-25T09:01:14.042Z,54.10
2019-03-25T09:03:45.774Z,53.98
2019-03-25T09:06:17.501Z,53.86
2019-03-25T09:08:49.261Z,53.79
2019-03-25T09:11:21.019Z,53.67
2019-03-25T09:13:52.852Z,53.60
2019-03-25T09:16:24.675Z,53.47
2019-03-25T09:18:56.401Z,53.30
2019-03-25T09:21:28.129Z,53.12
2019-03-25T09:24:00.069Z,53.03
2019-03-25T09:26:31.847Z,52.90
2019-03-25T09:29:03.531Z,52.73
2019-03-25T09:31:37.068Z,52.53
2019-03-25T09:34:08.917Z,52.50
2019-03-25T09:36:40.756Z,52.52
2019-03-25T09:39:12.655Z,52.28
2019-03-25T09:41:44.396Z,52.25
2019-03-25T09:44:17.098Z,52.16
2019-03-25T09:46:48.879Z,52.12
2019-03-25T09:49:20.666Z,51.86
2019-03-25T09:51:52.970Z,51.76
2019-03-25T09:54:25.916Z,51.64
2019-03-25T09:56:57.765Z,51.64
2019-03-25T09:59:29.501Z,51.53
2019-03-25T10:02:01.344Z,51.56
2019-03-25T10:04:33.110Z,51.52
2019-03-25T10:07:04.840Z,51.54
2019-03-25T10:09:36.684Z,51.56
2019-03-25T10:12:08.410Z,51.51
2019-03-25T10:14:40.168Z,51.58
2019-03-25T10:17:11.899Z,51.94
2019-03-25T10:19:43.641Z,52.18
2019-03-25T10:22:15.405Z,52.65
2019-03-25T10:24:47.231Z,52.68
2019-03-25T10:27:18.981Z,53.08
2019-03-25T10:29:50.732Z,53.18
2019-03-25T10:32:22.407Z,53.35
2019-03-25T10:34:54.199Z,53.35
2019-03-25T10:37:25.881Z,53.29
2019-03-25T10:39:57.724Z,53.57
2019-03-25T10:42:29.597Z,53.51
2019-03-25T10:45:01.303Z,53.77
2019-03-25T10:47:33.120Z,53.81
2019-03-25T10:50:05.420Z,53.69
2019-03-25T10:52:37.163Z,53.63
2019-03-25T10:55:08.976Z,53.69
2019-03-25T10:57:40.758Z,53.63
2019-03-25T11:00:13.159Z,53.69
2019-03-25T11:02:44.859Z,53.59
2019-03-25T11:05:16.669Z,53.56
2019-03-25T11:07:48.474Z,53.36
2019-03-25T11:10:20.256Z,53.17
2019-03-25T11:12:52.033Z,53.08
2019-03-25T11:15:23.759Z,53.02
2019-03-25T11:17:55.565Z,53.00
2019-03-25T11:20:27.393Z,52.93
2019-03-25T11:22:59.140Z,52.86
2019-03-25T11:25:30.953Z,52.94
2019-03-25T11:28:02.708Z,52.85
2019-03-25T11:30:57.772Z,52.76
2019-03-25T11:33:29.565Z,52.76
2019-03-25T11:36:02.856Z,52.80
2019-03-25T11:38:35.838Z,52.69
2019-03-25T11:41:07.590Z,52.50
2019-03-25T11:43:39.847Z,52.34
2019-03-25T11:46:11.584Z,52.29
2019-03-25T11:48:43.305Z,52.21
2019-03-25T11:51:15.009Z,52.19
2019-03-25T11:53:46.701Z,52.24
2019-03-25T11:56:18.643Z,52.32
2019-03-25T11:58:50.411Z,52.35
2019-03-25T12:01:22.156Z,52.09
2019-03-25T12:03:53.853Z,51.76
2019-03-25T12:06:25.568Z,51.62
2019-03-25T12:08:57.493Z,51.50
2019-03-25T12:11:29.260Z,51.55
2019-03-25T12:14:01.099Z,51.65
2019-03-25T12:16:32.849Z,51.70
2019-03-25T12:19:04.891Z,51.77
2019-03-25T12:21:36.629Z,51.67
2019-03-25T12:24:08.376Z,51.51
2019-03-25T12:26:40.093Z,51.50
2019-03-25T12:29:11.805Z,51.41
2019-03-25T12:31:43.487Z,51.38
2019-03-25T12:34:15.260Z,51.48
2019-03-25T12:36:47.039Z,51.30
2019-03-25T12:39:18.787Z,50.82
2019-03-25T12:41:50.998Z,50.49
2019-03-25T12:44:22.821Z,50.28
2019-03-25T12:46:54.540Z,50.36
2019-03-25T12:49:26.335Z,50.49
2019-03-25T12:51:59.193Z,50.90
2019-03-25T12:54:31.009Z,50.83
2019-03-25T12:57:02.796Z,50.69
2019-03-25T12:59:41.236Z,50.83
2019-03-25T13:02:08.361Z,50.62
2019-03-25T13:04:40.181Z,50.18
2019-03-25T13:07:11.968Z,50.36
2019-03-25T13:09:43.886Z,50.24
2019-03-25T13:12:15.904Z,50.85
2019-03-25T13:14:47.681Z,50.91
2019-03-25T13:17:19.355Z,50.49
2019-03-25T13:19:51.220Z,50.78
2019-03-25T13:22:23.403Z,50.64
2019-03-25T13:24:55.204Z,50.03
2019-03-25T13:27:27.043Z,49.51
2019-03-25T13:29:58.863Z,48.92
2019-03-25T13:32:30.567Z,49.13
2019-03-25T13:35:02.318Z,49.35
2019-03-25T13:37:34.105Z,49.61
2019-03-25T13:40:07.424Z,49.79
2019-03-25T13:42:39.196Z,50.08
2019-03-25T13:45:11.126Z,50.91
2019-03-25T13:47:43.032Z,51.95
2019-03-25T13:50:15.879Z,53.16
2019-03-25T13:52:47.586Z,52.96
2019-03-25T13:55:19.345Z,52.61
2019-03-25T13:57:51.161Z,52.98
2019-03-25T14:00:36.159Z,53.97
2019-03-25T14:03:07.906Z,53.58
2019-03-25T14:05:39.933Z,51.87
2019-03-25T14:08:11.705Z,50.60
2019-03-25T14:10:44.517Z,49.65
2019-03-25T14:13:17.300Z,48.78
2019-03-25T14:15:49.075Z,48.60
2019-03-25T14:18:20.953Z,48.81
2019-03-25T14:20:52.695Z,48.03
2019-03-25T14:23:25.432Z,47.66
2019-03-25T14:25:57.163Z,46.46
2019-03-25T14:28:28.875Z,46.02
2019-03-25T14:31:00.700Z,45.09
2019-03-25T14:33:32.471Z,44.07
2019-03-25T14:36:04.177Z,43.41
2019-03-25T14:38:35.931Z,43.51
2019-03-25T14:41:07.667Z,43.31
2019-03-25T14:43:39.373Z,42.94
2019-03-25T14:46:11.086Z,42.80
2019-03-25T14:48:42.951Z,42.12
2019-03-25T14:51:15.094Z,41.62
2019-03-25T14:53:46.867Z,40.95
2019-03-25T14:56:18.763Z,40.09
2019-03-25T14:58:50.540Z,39.65
2019-03-25T15:01:22.247Z,38.98
2019-03-25T15:03:54.059Z,38.05
2019-03-25T15:06:25.752Z,37.21
2019-03-25T15:08:57.533Z,36.75
2019-03-25T15:11:29.368Z,36.76
2019-03-25T15:14:01.071Z,36.92
2019-03-25T15:16:32.855Z,37.15
2019-03-25T15:19:04.530Z,37.53
2019-03-25T15:21:36.374Z,37.65
2019-03-25T15:24:08.067Z,37.78
2019-03-25T15:26:40.312Z,38.07
2019-03-25T15:29:12.123Z,38.43
2019-03-25T15:31:44.913Z,38.83
2019-03-25T15:34:17.808Z,39.38
2019-03-25T15:36:50.690Z,39.51
2019-03-25T15:39:22.643Z,39.64
2019-03-25T15:41:54.392Z,39.62
2019-03-25T15:44:26.126Z,39.35
2019-03-25T15:46:57.846Z,39.31
2019-03-25T15:49:29.572Z,39.27
2019-03-25T15:52:01.304Z,39.25
2019-03-25T15:54:32.982Z,39.20
2019-03-25T15:57:04.849Z,39.41
2019-03-25T15:59:37.523Z,39.67
2019-03-25T16:02:09.274Z,39.75
2019-03-25T16:04:41.010Z,39.76
2019-03-25T16:07:12.717Z,39.83
2019-03-25T16:09:44.515Z,39.93
2019-03-25T16:12:16.347Z,40.10
2019-03-25T16:14:48.164Z,40.32
2019-03-25T16:17:19.862Z,40.43
2019-03-25T16:19:51.638Z,40.63
2019-03-25T16:22:23.365Z,40.85
2019-03-25T16:24:55.152Z,41.08
2019-03-25T16:27:26.893Z,41.21
2019-03-25T16:29:58.587Z,41.41
2019-03-25T16:32:30.308Z,41.59
2019-03-25T16:35:02.153Z,41.77
2019-03-25T16:37:33.863Z,41.87
2019-03-25T16:40:05.682Z,41.99
2019-03-25T16:42:37.386Z,42.07
2019-03-25T16:45:09.217Z,42.16
2019-03-25T16:47:40.919Z,42.31
2019-03-25T16:50:12.682Z,42.43
2019-03-25T16:52:44.433Z,42.55
2019-03-25T16:55:16.185Z,42.76
2019-03-25T16:57:48.006Z,42.92
2019-03-25T17:00:27.339Z,43.08
2019-03-25T17:02:53.300Z,43.24
2019-03-25T17:05:25.105Z,43.36
2019-03-25T17:07:56.851Z,43.50
2019-03-25T17:10:28.570Z,43.65
2019-03-25T17:13:00.389Z,43.89
2019-03-25T17:15:32.224Z,43.95
2019-03-25T17:18:03.959Z,44.08
2019-03-25T17:20:35.715Z,44.18
2019-03-25T17:23:07.419Z,44.29
2019-03-25T17:25:39.130Z,44.38
2019-03-25T17:28:10.907Z,44.48
2019-03-25T17:30:42.688Z,44.54
2019-03-25T17:33:14.411Z,44.63
2019-03-25T17:35:46.295Z,44.64
2019-03-25T17:38:18.045Z,44.77
2019-03-25T17:40:49.964Z,44.93
2019-03-25T17:43:21.688Z,45.04
2019-03-25T17:45:53.449Z,45.15
2019-03-25T17:48:25.190Z,45.32
2019-03-25T17:50:57.031Z,45.46
2019-03-25T17:53:28.749Z,45.57
2019-03-25T17:56:00.538Z,45.69
2019-03-25T17:58:32.373Z,45.78
2019-03-25T18:01:14.312Z,45.93
2019-03-25T18:03:46.047Z,46.00
2019-03-25T18:06:17.843Z,46.11
2019-03-25T18:08:49.658Z,46.20
2019-03-25T18:11:22.896Z,46.31
2019-03-25T18:13:54.876Z,46.44
2019-03-25T18:16:26.616Z,46.42
2019-03-25T18:18:58.620Z,46.49
2019-03-25T18:21:30.605Z,46.61
2019-03-25T18:24:02.451Z,46.73
2019-03-25T18:26:34.312Z,46.87
2019-03-25T18:29:06.290Z,47.35
2019-03-25T18:31:43.398Z,47.47
2019-03-25T18:34:11.411Z,47.63
2019-03-25T18:36:43.113Z,47.61
2019-03-25T18:39:14.897Z,47.69
2019-03-25T18:41:46.723Z,47.79
2019-03-25T18:44:18.403Z,47.99
2019-03-25T18:46:51.099Z,48.07
2019-03-25T18:49:22.900Z,48.31
2019-03-25T18:51:54.702Z,48.32
2019-03-25T18:54:26.453Z,48.56
2019-03-25T18:56:59.229Z,48.80
2019-03-25T18:59:31.071Z,48.71
2019-03-25T19:02:02.857Z,48.83
2019-03-25T19:04:34.558Z,49.24
2019-03-25T19:07:06.362Z,49.22
2019-03-25T19:09:38.177Z,49.62
2019-03-25T19:12:10.428Z,49.53
2019-03-25T19:14:43.219Z,49.44
2019-03-25T19:17:15.116Z,49.69
2019-03-25T19:19:46.944Z,49.55
2019-03-25T19:22:18.657Z,49.67
2019-03-25T19:24:50.475Z,50.03
2019-03-25T19:27:22.211Z,50.03
2019-03-25T19:29:54.134Z,50.14
2019-03-25T19:32:26.116Z,50.12
2019-03-25T19:34:57.929Z,50.21
2019-03-25T19:37:29.674Z,50.21
2019-03-25T19:40:01.437Z,50.27
2019-03-25T19:42:33.268Z,50.31
2019-03-25T19:45:05.353Z,50.39
2019-03-25T19:47:37.035Z,50.41
2019-03-25T19:50:10.277Z,50.64
2019-03-25T19:52:42.096Z,50.41
2019-03-25T19:55:13.820Z,50.69
2019-03-25T19:57:46.630Z,50.64
2019-03-25T20:00:22.661Z,50.73
2019-03-25T20:02:54.398Z,50.63
2019-03-25T20:05:26.161Z,50.69
2019-03-25T20:07:58.000Z,50.71
2019-03-25T20:10:31.290Z,50.71
2019-03-25T20:13:03.244Z,50.82
2019-03-25T20:15:45.357Z,50.96
2019-03-25T20:18:09.035Z,51.03
2019-03-25T20:20:40.820Z,51.04
2019-03-25T20:23:12.556Z,51.26
2019-03-25T20:25:45.288Z,51.23
2019-03-25T20:28:17.187Z,51.38
2019-03-25T20:30:48.879Z,51.35
2019-03-25T20:33:20.827Z,51.37
2019-03-25T20:35:52.638Z,51.37
2019-03-25T20:38:24.463Z,51.61
2019-03-25T20:40:56.327Z,51.64
2019-03-25T20:43:28.180Z,51.61
2019-03-25T20:45:59.950Z,51.61
2019-03-25T20:48:31.745Z,51.61
2019-03-25T20:51:03.783Z,51.58
2019-03-25T20:53:36.008Z,51.73
2019-03-25T20:56:07.831Z,51.73
2019-03-25T20:58:39.651Z,51.64
2019-03-25T21:01:11.512Z,51.72
2019-03-25T21:03:43.269Z,51.90
2019-03-25T21:06:14.989Z,51.84
2019-03-25T21:08:46.849Z,51.88
2019-03-25T21:11:18.638Z,51.84
2019-03-25T21:13:50.337Z,51.88
2019-03-25T21:16:23.139Z,51.73
2019-03-25T21:18:54.872Z,51.72
2019-03-25T21:21:26.704Z,51.73
2019-03-25T21:23:59.566Z,51.74
2019-03-25T21:26:31.309Z,51.69
2019-03-25T21:29:03.210Z,51.72
2019-03-25T21:31:34.882Z,51.74
2019-03-25T21:34:07.020Z,51.90
2019-03-25T21:36:39.108Z,51.84
2019-03-25T21:39:11.038Z,51.86
2019-03-25T21:41:42.848Z,51.85
2019-03-25T21:44:16.602Z,51.83
2019-03-25T21:46:48.437Z,51.88
2019-03-25T21:49:20.212Z,51.94
2019-03-25T21:51:52.104Z,51.91
2019-03-25T21:54:23.928Z,51.93
2019-03-25T21:56:55.927Z,52.03
2019-03-25T21:59:27.841Z,52.02
2019-03-25T22:01:59.657Z,52.27
2019-03-25T22:04:31.532Z,52.27
2019-03-25T22:07:03.319Z,52.32
2019-03-25T22:09:35.390Z,52.36
2019-03-25T22:12:07.222Z,52.38
2019-03-25T22:14:39.024Z,52.43
2019-03-25T22:17:11.961Z,52.64
2019-03-25T22:19:43.704Z,52.61
2019-03-25T22:22:15.737Z,52.60
2019-03-25T22:24:48.036Z,52.65
2019-03-25T22:27:20.989Z,52.76
2019-03-25T22:29:54.324Z,52.74
2019-03-25T22:32:26.257Z,52.83
2019-03-25T22:34:57.961Z,52.78
2019-03-25T22:37:29.753Z,52.84
2019-03-25T22:40:01.639Z,53.12
2019-03-25T22:42:33.317Z,52.95
2019-03-25T22:45:05.989Z,53.18
2019-03-25T22:47:37.933Z,53.24
2019-03-25T22:50:12.166Z,53.43
2019-03-25T22:52:43.958Z,53.18
2019-03-25T22:55:16.785Z,53.28
2019-03-25T22:57:48.573Z,53.26
2019-03-25T23:00:24.205Z,53.23
2019-03-25T23:02:57.611Z,53.12
2019-03-25T23:05:29.427Z,53.20
2019-03-25T23:08:01.176Z,53.08
2019-03-25T23:10:33.284Z,53.17
2019-03-25T23:13:05.032Z,53.04
2019-03-25T23:15:36.875Z,53.03
2019-03-25T23:18:08.555Z,53.10
2019-03-25T23:20:40.427Z,53.07
2019-03-25T23:23:12.128Z,52.96
2019-03-25T23:25:43.977Z,52.94
2019-03-25T23:28:15.793Z,52.89
2019-03-25T23:30:47.592Z,52.89
2019-03-25T23:33:19.507Z,52.88
2019-03-25T23:35:51.481Z,52.93
2019-03-25T23:38:23.311Z,52.93
2019-03-25T23:40:55.115Z,52.90
2019-03-25T23:43:26.781Z,52.91
2019-03-25T23:45:58.501Z,52.92
2019-03-25T23:48:30.280Z,52.93
2019-03-25T23:51:01.928Z,52.91
2019-03-25T23:53:33.610Z,52.95
2019-03-25T23:56:05.359Z,53.09
2019-03-25T23:58:37.158Z,53.06
